createdAt,value
2023-06-30T00:01:02.617Z,78.85
2023-06-30T00:03:33.179Z,78.70
2023-06-30T00:06:03.573Z,79.59
2023-06-30T00:08:33.903Z,79.89
2023-06-30T00:11:06.844Z,80.01
2023-06-30T00:13:37.173Z,80.48
2023-06-30T00:16:07.875Z,80.57
2023-06-30T00:18:38.181Z,79.81
2023-06-30T00:21:08.510Z,80.61
2023-06-30T00:23:38.949Z,80.35
2023-06-30T00:26:11.846Z,80.55
2023-06-30T00:28:42.124Z,80.73
2023-06-30T00:31:12.479Z,80.25
2023-06-30T00:33:42.830Z,81.05
2023-06-30T00:36:13.097Z,81.40
2023-06-30T00:38:43.398Z,81.49
2023-06-30T00:41:16.372Z,81.72
2023-06-30T00:43:46.664Z,81.63
2023-06-30T00:46:20.389Z,81.45
2023-06-30T00:48:51.004Z,81.32
2023-06-30T00:51:21.532Z,81.66
2023-06-30T00:53:51.980Z,82.09
2023-06-30T00:56:24.953Z,82.27
2023-06-30T00:58:55.386Z,82.26
2023-06-30T01:01:35.000Z,81.90
2023-06-30T01:04:15.117Z,82.76
2023-06-30T01:06:56.340Z,82.37
2023-06-30T01:09:33.547Z,82.92
2023-06-30T01:12:07.741Z,83.17
2023-06-30T01:14:39.391Z,82.83
2023-06-30T01:17:10.667Z,83.36
2023-06-30T01:19:46.383Z,83.46
2023-06-30T01:22:28.393Z,83.23
2023-06-30T01:25:04.127Z,83.80
2023-06-30T01:27:37.614Z,84.30
2023-06-30T01:30:10.349Z,84.83
2023-06-30T01:32:41.316Z,83.90
2023-06-30T01:35:12.458Z,84.21
2023-06-30T01:37:42.879Z,83.80
2023-06-30T01:40:15.560Z,84.72
2023-06-30T01:42:49.696Z,84.51
2023-06-30T01:45:20.624Z,84.99
2023-06-30T01:47:51.479Z,84.76
2023-06-30T01:50:23.422Z,85.03
2023-06-30T01:52:54.025Z,84.52
2023-06-30T01:55:24.429Z,84.62
2023-06-30T01:57:57.671Z,84.92
2023-06-30T02:00:28.070Z,84.62
2023-06-30T02:02:58.502Z,84.80
2023-06-30T02:05:28.844Z,84.37
2023-06-30T02:07:59.118Z,84.57
2023-06-30T02:10:29.398Z,84.83
2023-06-30T02:13:02.590Z,84.71
2023-06-30T02:15:32.948Z,85.65
2023-06-30T02:18:04.526Z,85.59
2023-06-30T02:20:34.851Z,85.06
2023-06-30T02:23:05.196Z,85.82
2023-06-30T02:25:35.506Z,85.83
2023-06-30T02:28:08.897Z,85.68
2023-06-30T02:30:39.207Z,85.93
2023-06-30T02:33:09.496Z,86.17
2023-06-30T02:35:39.831Z,86.07
2023-06-30T02:38:10.220Z,85.93
2023-06-30T02:40:40.568Z,86.37
2023-06-30T02:43:13.442Z,86.03
2023-06-30T02:45:43.962Z,85.77
2023-06-30T02:48:14.561Z,85.88
2023-06-30T02:50:45.412Z,85.55
2023-06-30T02:53:15.665Z,85.99
2023-06-30T02:55:46.339Z,85.93
2023-06-30T02:58:19.464Z,86.20
2023-06-30T03:00:50.787Z,86.05
2023-06-30T03:03:21.535Z,86.15
2023-06-30T03:05:52.198Z,86.60
2023-06-30T03:08:22.443Z,86.95
2023-06-30T03:10:53.076Z,86.80
2023-06-30T03:13:25.957Z,86.96
2023-06-30T03:15:56.262Z,86.79
2023-06-30T03:18:26.890Z,86.67
2023-06-30T03:20:57.189Z,86.73
2023-06-30T03:23:27.522Z,86.41
2023-06-30T03:25:57.834Z,86.55
2023-06-30T03:28:30.723Z,86.54
2023-06-30T03:31:01.141Z,86.55
2023-06-30T03:33:31.474Z,86.14
2023-06-30T03:36:01.829Z,86.28
2023-06-30T03:38:32.109Z,85.96
2023-06-30T03:41:02.470Z,86.08
2023-06-30T03:43:35.424Z,86.01
2023-06-30T03:46:05.825Z,85.89
2023-06-30T03:48:36.143Z,86.37
2023-06-30T03:51:07.759Z,86.55
2023-06-30T03:53:38.063Z,86.02
2023-06-30T03:56:09.397Z,85.59
2023-06-30T03:58:42.298Z,85.77
2023-06-30T04:01:12.922Z,85.86
2023-06-30T04:03:43.358Z,86.07
2023-06-30T04:06:14.203Z,85.93
2023-06-30T04:08:45.533Z,85.86
2023-06-30T04:11:15.863Z,86.41
2023-06-30T04:13:48.787Z,86.00
2023-06-30T04:16:19.120Z,86.21
2023-06-30T04:18:49.428Z,85.83
2023-06-30T04:21:19.772Z,86.06
2023-06-30T04:23:50.033Z,86.17
2023-06-30T04:26:20.610Z,85.90
2023-06-30T04:28:53.528Z,85.79
2023-06-30T04:31:23.930Z,86.07
2023-06-30T04:33:54.274Z,86.47
2023-06-30T04:36:24.566Z,86.43
2023-06-30T04:38:54.886Z,86.15
2023-06-30T04:41:26.902Z,86.36
2023-06-30T04:44:00.961Z,86.26
2023-06-30T04:46:32.282Z,86.53
2023-06-30T04:49:05.881Z,86.15
2023-06-30T04:51:37.162Z,86.25
2023-06-30T04:54:07.631Z,86.93
2023-06-30T04:56:37.935Z,86.53
2023-06-30T04:59:10.873Z,86.65
2023-06-30T05:01:41.845Z,86.27
2023-06-30T05:04:12.175Z,86.58
2023-06-30T05:06:42.471Z,86.83
2023-06-30T05:09:12.768Z,86.53
2023-06-30T05:11:43.085Z,86.72
2023-06-30T05:14:15.948Z,86.35
2023-06-30T05:16:46.366Z,86.46
2023-06-30T05:19:16.808Z,86.49
2023-06-30T05:21:47.161Z,86.55
2023-06-30T05:24:17.510Z,86.20
2023-06-30T05:26:47.833Z,86.30
2023-06-30T05:29:20.730Z,86.21
2023-06-30T05:31:51.299Z,86.04
2023-06-30T05:34:21.695Z,86.56
2023-06-30T05:36:51.984Z,86.04
2023-06-30T05:39:22.262Z,86.12
2023-06-30T05:41:52.576Z,85.69
2023-06-30T05:44:25.551Z,85.33
2023-06-30T05:46:56.099Z,85.42
2023-06-30T05:49:26.464Z,85.34
2023-06-30T05:51:57.063Z,85.10
2023-06-30T05:54:27.374Z,85.14
2023-06-30T05:56:57.659Z,84.97
2023-06-30T05:59:31.875Z,84.92
2023-06-30T06:02:02.200Z,84.27
2023-06-30T06:04:32.700Z,83.88
2023-06-30T06:07:06.738Z,83.26
2023-06-30T06:09:37.398Z,83.16
2023-06-30T06:12:09.333Z,82.73
2023-06-30T06:14:42.609Z,82.12
2023-06-30T06:17:12.887Z,82.26
2023-06-30T06:19:43.155Z,81.56
2023-06-30T06:22:13.515Z,81.60
2023-06-30T06:24:43.824Z,81.23
2023-06-30T06:27:14.176Z,81.13
2023-06-30T06:29:47.140Z,80.25
2023-06-30T06:32:20.450Z,80.39
2023-06-30T06:34:50.893Z,80.29
2023-06-30T06:37:21.274Z,80.52
2023-06-30T06:39:51.549Z,80.80
2023-06-30T06:42:21.854Z,80.59
2023-06-30T06:44:55.075Z,81.14
2023-06-30T06:48:10.290Z,81.50
2023-06-30T06:50:40.621Z,82.20
2023-06-30T06:53:11.065Z,83.01
2023-06-30T06:55:41.367Z,83.63
2023-06-30T06:58:11.641Z,83.88
2023-06-30T07:00:44.703Z,84.69
2023-06-30T07:03:15.067Z,84.60
2023-06-30T07:05:46.373Z,85.11
2023-06-30T07:08:20.307Z,85.53
2023-06-30T07:10:52.095Z,86.13
2023-06-30T07:13:24.328Z,86.54
2023-06-30T07:15:57.251Z,87.06
2023-06-30T07:18:27.784Z,87.18
2023-06-30T07:20:58.467Z,87.97
2023-06-30T07:23:28.740Z,87.84
2023-06-30T07:25:59.007Z,88.87
2023-06-30T07:28:29.288Z,89.47
2023-06-30T07:31:02.212Z,90.06
2023-06-30T07:33:32.520Z,90.62
2023-06-30T07:36:02.789Z,90.75
2023-06-30T07:38:33.150Z,91.82
2023-06-30T07:41:03.461Z,92.05
2023-06-30T07:43:34.172Z,91.72
2023-06-30T07:46:07.134Z,92.40
2023-06-30T07:48:37.536Z,93.21
2023-06-30T07:51:09.756Z,93.19
2023-06-30T07:53:41.230Z,93.61
2023-06-30T07:56:11.686Z,93.78
2023-06-30T07:58:42.100Z,93.59
2023-06-30T08:01:15.029Z,93.85
2023-06-30T08:03:45.566Z,94.11
2023-06-30T08:06:16.234Z,93.86
2023-06-30T08:08:46.638Z,93.76
2023-06-30T08:11:16.934Z,93.64
2023-06-30T08:13:47.279Z,94.18
2023-06-30T08:16:20.255Z,94.81
2023-06-30T08:18:52.023Z,94.68
2023-06-30T08:21:22.979Z,95.07
2023-06-30T08:23:53.828Z,95.03
2023-06-30T08:26:24.184Z,95.47
2023-06-30T08:28:54.855Z,95.04
2023-06-30T08:31:28.011Z,95.18
2023-06-30T08:33:58.326Z,95.70
2023-06-30T08:36:30.633Z,95.46
2023-06-30T08:39:02.069Z,95.29
2023-06-30T08:41:32.491Z,94.82
2023-06-30T08:44:04.341Z,94.74
2023-06-30T08:46:37.991Z,94.73
2023-06-30T08:49:09.558Z,94.87
2023-06-30T08:51:40.914Z,94.92
2023-06-30T08:54:12.890Z,95.00
2023-06-30T08:56:43.963Z,94.61
2023-06-30T08:59:14.363Z,95.07
2023-06-30T09:01:48.684Z,95.22
2023-06-30T09:04:19.845Z,94.88
2023-06-30T09:06:51.621Z,94.70
2023-06-30T09:09:29.966Z,94.59
2023-06-30T09:12:01.801Z,94.97
2023-06-30T09:14:35.428Z,95.13
2023-06-30T09:17:09.982Z,95.00
2023-06-30T09:19:40.277Z,94.43
2023-06-30T09:22:52.213Z,94.40
2023-06-30T09:25:03.553Z,94.14
2023-06-30T09:27:38.820Z,93.63
2023-06-30T09:30:11.527Z,93.97
2023-06-30T09:32:46.770Z,94.24
2023-06-30T09:35:19.420Z,94.00
2023-06-30T09:37:49.718Z,93.85
2023-06-30T09:40:21.616Z,93.20
2023-06-30T09:42:56.914Z,93.16
2023-06-30T09:45:27.212Z,93.00
2023-06-30T09:48:00.307Z,92.86
2023-06-30T09:50:31.541Z,92.67
2023-06-30T09:53:02.360Z,93.00
2023-06-30T09:55:32.914Z,92.77
2023-06-30T09:58:03.205Z,93.49
2023-06-30T10:00:36.780Z,93.49
2023-06-30T10:03:11.809Z,93.45
2023-06-30T10:05:42.713Z,93.64
2023-06-30T10:08:14.506Z,94.05
2023-06-30T10:10:46.479Z,94.23
2023-06-30T10:13:19.525Z,93.87
2023-06-30T10:15:50.131Z,93.91
2023-06-30T10:18:24.759Z,93.50
2023-06-30T10:20:55.213Z,92.60
2023-06-30T10:23:28.547Z,91.58
2023-06-30T10:25:59.569Z,91.53
2023-06-30T10:28:30.169Z,90.95
2023-06-30T10:31:00.773Z,90.62
2023-06-30T10:33:33.955Z,90.43
2023-06-30T10:36:05.067Z,90.23
2023-06-30T10:38:35.557Z,89.88
2023-06-30T10:41:21.227Z,90.20
2023-06-30T10:44:09.991Z,89.47
2023-06-30T10:46:55.226Z,89.26
2023-06-30T10:49:36.984Z,88.71
2023-06-30T10:52:11.966Z,88.48
2023-06-30T10:54:44.677Z,88.43
2023-06-30T10:57:16.616Z,88.20
2023-06-30T10:59:48.705Z,87.68
2023-06-30T11:02:27.514Z,87.03
2023-06-30T11:05:22.420Z,86.55
2023-06-30T11:07:54.232Z,86.58
2023-06-30T11:10:40.074Z,86.76
2023-06-30T11:13:11.385Z,87.13
2023-06-30T11:15:53.248Z,87.89
2023-06-30T11:18:26.235Z,88.68
2023-06-30T11:21:07.695Z,89.46
2023-06-30T11:23:40.721Z,89.74
2023-06-30T11:26:18.947Z,90.19
2023-06-30T11:28:52.261Z,90.52
2023-06-30T11:31:22.619Z,89.51
2023-06-30T11:33:53.600Z,88.88
2023-06-30T11:36:26.559Z,88.05
2023-06-30T11:38:56.847Z,86.05
2023-06-30T11:41:28.043Z,85.91
2023-06-30T11:43:59.569Z,85.19
2023-06-30T11:46:37.483Z,85.35
2023-06-30T11:49:08.164Z,85.10
2023-06-30T11:51:41.134Z,84.48
2023-06-30T11:54:11.543Z,84.67
2023-06-30T11:56:43.700Z,83.90
2023-06-30T11:59:14.190Z,83.64
2023-06-30T12:01:44.494Z,83.14
2023-06-30T12:04:39.623Z,82.95
2023-06-30T12:07:12.595Z,83.17
2023-06-30T12:09:44.811Z,82.95
2023-06-30T12:12:15.594Z,82.63
2023-06-30T12:14:46.333Z,82.43
2023-06-30T12:17:16.615Z,82.15
2023-06-30T12:19:49.261Z,80.68
2023-06-30T12:22:31.535Z,79.62
2023-06-30T12:25:03.728Z,79.79
2023-06-30T12:27:36.789Z,79.74
2023-06-30T12:30:08.307Z,79.70
2023-06-30T12:32:43.124Z,79.83
2023-06-30T12:35:13.818Z,79.17
2023-06-30T12:37:49.668Z,79.24
2023-06-30T12:40:21.121Z,80.10
2023-06-30T12:42:51.610Z,79.64
2023-06-30T12:45:21.959Z,79.19
2023-06-30T12:47:52.472Z,78.11
2023-06-30T12:50:23.232Z,77.17
2023-06-30T12:52:56.128Z,77.54
2023-06-30T12:55:28.083Z,78.07
2023-06-30T12:57:58.776Z,78.07
2023-06-30T13:00:29.474Z,77.92
2023-06-30T13:03:00.538Z,77.20
2023-06-30T13:05:30.980Z,76.92
2023-06-30T13:08:03.868Z,77.32
2023-06-30T13:10:34.628Z,77.77
2023-06-30T13:13:04.913Z,77.09
2023-06-30T13:15:35.213Z,75.33
2023-06-30T13:18:05.540Z,76.32
2023-06-30T13:20:35.885Z,76.74
2023-06-30T13:23:17.189Z,77.00
2023-06-30T13:25:50.668Z,76.62
2023-06-30T13:28:20.994Z,76.68
2023-06-30T13:30:51.325Z,76.64
2023-06-30T13:33:23.009Z,77.33
2023-06-30T13:35:53.431Z,77.10
2023-06-30T13:38:26.638Z,77.94
2023-06-30T13:40:57.236Z,77.91
2023-06-30T13:43:27.505Z,76.66
2023-06-30T13:45:58.546Z,78.97
2023-06-30T13:48:28.856Z,81.98
2023-06-30T13:50:59.170Z,83.98
2023-06-30T13:53:32.106Z,85.30
2023-06-30T13:56:02.710Z,86.36
2023-06-30T13:58:33.829Z,86.49
2023-06-30T14:01:04.418Z,88.90
2023-06-30T14:03:36.884Z,89.91
2023-06-30T14:06:07.754Z,90.90
2023-06-30T14:08:41.019Z,91.22
2023-06-30T14:11:11.401Z,91.06
2023-06-30T14:13:42.024Z,90.96
2023-06-30T14:16:12.438Z,89.94
2023-06-30T14:18:42.855Z,88.91
2023-06-30T14:21:13.168Z,87.92
2023-06-30T14:23:46.029Z,86.99
2023-06-30T14:26:16.513Z,86.51
2023-06-30T14:28:47.033Z,86.48
2023-06-30T14:31:17.404Z,86.42
2023-06-30T14:33:47.820Z,86.33
2023-06-30T14:36:18.343Z,85.48
2023-06-30T14:38:51.249Z,85.24
2023-06-30T14:41:21.714Z,85.65
2023-06-30T14:43:52.034Z,85.57
2023-06-30T14:46:22.415Z,84.98
2023-06-30T14:48:53.044Z,84.99
2023-06-30T14:51:23.774Z,86.08
2023-06-30T14:53:56.690Z,85.75
2023-06-30T14:56:26.982Z,86.34
2023-06-30T14:58:57.251Z,86.43
2023-06-30T15:01:27.782Z,86.96
2023-06-30T15:03:58.126Z,87.38
2023-06-30T15:06:28.456Z,86.74
2023-06-30T15:09:01.350Z,86.66
2023-06-30T15:11:31.654Z,86.10
2023-06-30T15:14:01.948Z,86.25
2023-06-30T15:16:32.344Z,85.92
2023-06-30T15:19:03.443Z,86.03
2023-06-30T15:21:33.844Z,86.07
2023-06-30T15:24:07.101Z,85.50
2023-06-30T15:26:37.412Z,85.44
2023-06-30T15:29:07.722Z,84.97
2023-06-30T15:31:38.010Z,84.75
2023-06-30T15:34:08.316Z,84.66
2023-06-30T15:36:38.650Z,84.36
2023-06-30T15:39:11.813Z,84.34
2023-06-30T15:41:42.301Z,84.10
2023-06-30T15:44:12.621Z,84.24
2023-06-30T15:46:42.973Z,82.92
2023-06-30T15:49:13.733Z,84.09
2023-06-30T15:51:44.008Z,83.39
2023-06-30T15:54:16.930Z,83.63
2023-06-30T15:56:47.241Z,83.93
2023-06-30T15:59:17.682Z,83.57
2023-06-30T16:01:48.178Z,83.06
2023-06-30T16:04:18.560Z,83.42
2023-06-30T16:06:49.014Z,83.59
2023-06-30T16:09:22.281Z,84.37
2023-06-30T16:11:52.588Z,85.18
2023-06-30T16:14:22.915Z,85.42
2023-06-30T16:16:53.191Z,86.16
2023-06-30T16:19:23.820Z,86.75
2023-06-30T16:21:54.105Z,87.57
2023-06-30T16:24:26.987Z,87.25
2023-06-30T16:26:57.426Z,87.63
2023-06-30T16:29:27.726Z,88.27
2023-06-30T16:31:58.025Z,88.31
2023-06-30T16:34:28.399Z,88.45
2023-06-30T16:36:58.764Z,88.11
2023-06-30T16:39:31.653Z,88.47
2023-06-30T16:42:02.005Z,88.19
2023-06-30T16:44:32.517Z,88.64
2023-06-30T16:47:03.064Z,88.60
2023-06-30T16:49:33.958Z,89.05
2023-06-30T16:52:04.240Z,89.05
2023-06-30T16:54:37.151Z,88.82
2023-06-30T16:57:08.581Z,89.32
2023-06-30T16:59:38.957Z,88.90
2023-06-30T17:02:10.239Z,90.13
2023-06-30T17:04:40.905Z,89.30
2023-06-30T17:07:13.676Z,88.69
2023-06-30T17:09:46.551Z,88.28
2023-06-30T17:12:18.042Z,88.11
2023-06-30T17:14:48.349Z,87.27
2023-06-30T17:17:18.753Z,86.59
2023-06-30T17:19:49.034Z,85.86
2023-06-30T17:22:19.607Z,84.58
2023-06-30T17:24:55.959Z,84.54
2023-06-30T17:27:26.563Z,85.59
2023-06-30T17:29:56.818Z,85.14
2023-06-30T17:32:27.231Z,85.55
2023-06-30T17:34:57.544Z,85.68
2023-06-30T17:37:27.839Z,85.54
2023-06-30T17:40:00.723Z,85.57
2023-06-30T17:42:31.020Z,85.83
2023-06-30T17:45:01.345Z,86.08
2023-06-30T17:47:31.699Z,85.89
2023-06-30T17:50:02.150Z,86.13
2023-06-30T17:52:32.478Z,86.27
2023-06-30T17:55:05.400Z,86.98
2023-06-30T17:57:35.712Z,88.05
2023-06-30T18:00:06.941Z,88.53
2023-06-30T18:02:37.396Z,88.67
2023-06-30T18:05:08.494Z,88.99
2023-06-30T18:07:38.865Z,90.42
2023-06-30T18:10:15.247Z,90.25
2023-06-30T18:12:46.163Z,91.10
2023-06-30T18:15:16.488Z,92.18
2023-06-30T18:17:46.816Z,92.57
2023-06-30T18:20:17.786Z,92.67
2023-06-30T18:22:48.324Z,92.57
2023-06-30T18:25:21.226Z,93.54
2023-06-30T18:27:51.509Z,92.94
2023-06-30T18:30:21.948Z,92.85
2023-06-30T18:32:52.290Z,92.94
2023-06-30T18:35:22.894Z,93.45
2023-06-30T18:37:53.255Z,92.96
2023-06-30T18:40:26.203Z,93.22
2023-06-30T18:42:56.471Z,93.63
2023-06-30T18:45:26.800Z,93.51
2023-06-30T18:47:57.246Z,93.39
2023-06-30T18:50:27.542Z,93.40
2023-06-30T18:52:58.023Z,93.73
2023-06-30T18:55:30.932Z,93.86
2023-06-30T18:58:01.238Z,94.02
2023-06-30T19:00:31.506Z,94.37
2023-06-30T19:03:02.043Z,94.07
2023-06-30T19:05:32.569Z,94.63
2023-06-30T19:08:02.935Z,94.97
2023-06-30T19:10:35.809Z,94.77
2023-06-30T19:13:06.139Z,94.77
2023-06-30T19:15:36.483Z,94.97
2023-06-30T19:18:07.080Z,95.00
2023-06-30T19:20:37.358Z,95.22
2023-06-30T19:23:07.706Z,95.39
2023-06-30T19:25:40.620Z,95.08
2023-06-30T19:28:10.872Z,95.30
2023-06-30T19:30:41.204Z,95.85
2023-06-30T19:33:11.511Z,95.71
2023-06-30T19:35:42.440Z,95.99
2023-06-30T19:38:13.616Z,95.64
2023-06-30T19:40:46.752Z,95.83
2023-06-30T19:43:17.040Z,95.56
2023-06-30T19:45:47.516Z,96.16
2023-06-30T19:48:18.893Z,96.19
2023-06-30T19:50:49.792Z,96.36
2023-06-30T19:53:20.541Z,96.56
2023-06-30T19:55:53.425Z,96.85
2023-06-30T19:58:23.736Z,97.02
2023-06-30T20:00:54.811Z,97.94
2023-06-30T20:03:25.441Z,97.80
2023-06-30T20:05:56.120Z,97.77
2023-06-30T20:08:26.475Z,98.54
2023-06-30T20:10:59.405Z,98.37
2023-06-30T20:13:29.740Z,99.42
2023-06-30T20:16:00.003Z,98.79
2023-06-30T20:18:30.777Z,98.91
2023-06-30T20:21:01.776Z,98.94
2023-06-30T20:23:32.398Z,99.08
2023-06-30T20:26:05.352Z,99.10
2023-06-30T20:28:35.710Z,99.42
2023-06-30T20:31:06.059Z,99.37
2023-06-30T20:33:36.506Z,99.67
2023-06-30T20:36:07.673Z,100.00
2023-06-30T20:38:37.977Z,100.00
2023-06-30T20:41:11.015Z,100.00
2023-06-30T20:43:41.539Z,100.00
2023-06-30T20:46:11.855Z,100.00
2023-06-30T20:48:42.135Z,100.00
2023-06-30T20:51:12.468Z,100.00
2023-06-30T20:53:42.813Z,100.00
2023-06-30T20:56:15.636Z,100.00
2023-06-30T20:58:46.019Z,100.00
2023-06-30T21:01:16.310Z,100.00
2023-06-30T21:03:46.714Z,100.00
2023-06-30T21:06:18.400Z,100.00
2023-06-30T21:08:49.331Z,100.00
2023-06-30T21:11:22.274Z,100.00
2023-06-30T21:13:52.614Z,100.00
2023-06-30T21:16:22.958Z,100.00
2023-06-30T21:18:53.307Z,100.00
2023-06-30T21:21:23.714Z,100.00
2023-06-30T21:23:54.073Z,100.00
2023-06-30T21:26:27.121Z,100.00
2023-06-30T21:28:57.472Z,100.00
2023-06-30T21:31:27.872Z,100.00
2023-06-30T21:33:58.268Z,100.00
2023-06-30T21:36:28.577Z,100.00
2023-06-30T21:38:58.976Z,100.00
2023-06-30T21:41:32.169Z,100.00
2023-06-30T21:44:02.494Z,100.00
2023-06-30T21:46:32.784Z,100.00
2023-06-30T21:49:03.249Z,100.00
2023-06-30T21:51:33.628Z,100.00
2023-06-30T21:54:08.101Z,100.00
2023-06-30T21:56:40.966Z,100.00
2023-06-30T21:59:11.260Z,100.00
2023-06-30T22:01:42.382Z,100.00
2023-06-30T22:04:13.345Z,100.00
2023-06-30T22:06:43.805Z,100.00
2023-06-30T22:09:16.262Z,100.00
2023-06-30T22:11:49.657Z,100.00
2023-06-30T22:14:20.130Z,100.00
2023-06-30T22:16:50.408Z,100.00
2023-06-30T22:19:20.789Z,100.00
2023-06-30T22:21:51.291Z,100.00
2023-06-30T22:24:21.614Z,100.00
2023-06-30T22:26:54.538Z,100.00
2023-06-30T22:29:24.950Z,100.00
2023-06-30T22:31:55.365Z,100.00
2023-06-30T22:34:26.052Z,100.00
2023-06-30T22:36:56.392Z,100.00
2023-06-30T22:39:26.706Z,100.00
2023-06-30T22:41:59.596Z,100.00
2023-06-30T22:44:29.918Z,100.00
2023-06-30T22:47:00.343Z,100.00
2023-06-30T22:49:30.714Z,100.00
2023-06-30T22:52:01.080Z,100.00
2023-06-30T22:54:31.445Z,100.00
2023-06-30T22:57:04.564Z,100.00
2023-06-30T22:59:34.901Z,100.00
2023-06-30T23:02:05.922Z,100.00
2023-06-30T23:04:36.452Z,100.00
2023-06-30T23:07:07.911Z,100.00
2023-06-30T23:09:38.401Z,100.00
2023-06-30T23:12:12.706Z,100.00
2023-06-30T23:14:44.196Z,100.00
2023-06-30T23:17:16.690Z,100.00
2023-06-30T23:19:49.494Z,100.00
2023-06-30T23:22:20.310Z,100.00
2023-06-30T23:24:51.762Z,100.00
2023-06-30T23:27:28.859Z,100.00
2023-06-30T23:29:59.780Z,100.00
2023-06-30T23:32:30.268Z,100.00
2023-06-30T23:35:00.595Z,100.00
2023-06-30T23:37:30.993Z,100.00
2023-06-30T23:40:01.328Z,100.00
2023-06-30T23:42:34.191Z,100.00
2023-06-30T23:45:04.534Z,100.00
2023-06-30T23:47:34.857Z,100.00
2023-06-30T23:50:05.226Z,100.00
2023-06-30T23:52:35.598Z,100.00
2023-06-30T23:55:06.689Z,100.00
2023-06-30T23:57:39.536Z,100.00
